createdAt,value
2023-02-02T00:00:59.332Z,100429.84
2023-02-02T00:04:03.111Z,100434.34
2023-02-02T00:07:05.924Z,100418.44
2023-02-02T00:10:09.569Z,100426.28
2023-02-02T00:13:13.516Z,100416.75
2023-02-02T00:16:37.404Z,100400.50
2023-02-02T00:19:40.073Z,100402.22
2023-02-02T00:22:42.969Z,100411.03
2023-02-02T00:25:49.373Z,100410.88
2023-02-02T00:28:52.963Z,100414.41
2023-02-02T00:31:55.759Z,100410.63
2023-02-02T00:34:58.756Z,100405.41
2023-02-02T00:38:02.201Z,100405.28
2023-02-02T00:41:07.303Z,100392.41
2023-02-02T00:44:28.635Z,100405.03
2023-02-02T00:47:31.565Z,100428.88
2023-02-02T00:50:34.524Z,100427.50
2023-02-02T00:53:37.668Z,100397.72
2023-02-02T00:56:41.122Z,100418.56
2023-02-02T00:59:44.295Z,100417.94
2023-02-02T01:02:47.380Z,100401.28
2023-02-02T01:05:52.084Z,100408.12
2023-02-02T01:08:55.134Z,100412.09
2023-02-02T01:11:58.579Z,100418.34
2023-02-02T01:15:02.401Z,100409.72
2023-02-02T01:18:07.124Z,100402.28
2023-02-02T01:21:13.111Z,100403.44
2023-02-02T01:24:16.008Z,100408.88
2023-02-02T01:27:19.256Z,100398.66
2023-02-02T01:30:22.774Z,100378.47
2023-02-02T01:33:25.796Z,100370.88
2023-02-02T01:36:29.348Z,100389.28
2023-02-02T01:39:34.220Z,100383.56
2023-02-02T01:42:37.360Z,100367.16
2023-02-02T01:45:39.985Z,100378.97
2023-02-02T01:48:52.162Z,100374.41
2023-02-02T01:51:59.167Z,100362.59
2023-02-02T01:55:08.738Z,100347.91
2023-02-02T01:58:17.467Z,100355.69
2023-02-02T02:01:20.674Z,100332.41
2023-02-02T02:04:25.410Z,100343.72
2023-02-02T02:07:28.367Z,100341.34
2023-02-02T02:10:31.625Z,100336.88
2023-02-02T02:13:57.386Z,100333.16
2023-02-02T02:17:28.889Z,100327.31
2023-02-02T02:21:15.510Z,100330.91
2023-02-02T02:24:36.714Z,100328.22
2023-02-02T02:28:02.383Z,100332.84
2023-02-02T02:31:21.201Z,100328.09
2023-02-02T02:34:26.659Z,100309.16
2023-02-02T02:37:33.683Z,100298.63
2023-02-02T02:40:47.400Z,100301.19
2023-02-02T02:44:05.161Z,100306.56
2023-02-02T02:47:08.936Z,100275.41
2023-02-02T02:50:12.175Z,100295.00
2023-02-02T02:53:24.073Z,100274.47
2023-02-02T02:56:38.953Z,100294.78
2023-02-02T03:00:06.321Z,100293.72
2023-02-02T03:03:15.501Z,100317.94
2023-02-02T03:06:40.356Z,100307.34
2023-02-02T03:09:46.464Z,100310.81
2023-02-02T03:12:52.002Z,100286.41
2023-02-02T03:15:56.075Z,100284.16
2023-02-02T03:18:58.957Z,100310.63
2023-02-02T03:22:01.903Z,100315.31
2023-02-02T03:25:04.980Z,100318.16
2023-02-02T03:28:07.936Z,100315.91
2023-02-02T03:31:11.374Z,100327.63
2023-02-02T03:34:14.476Z,100331.94
2023-02-02T03:37:17.076Z,100348.06
2023-02-02T03:40:19.951Z,100342.66
2023-02-02T03:43:23.851Z,100366.28
2023-02-02T03:46:26.911Z,100379.72
2023-02-02T03:49:29.509Z,100385.44
2023-02-02T03:52:32.416Z,100394.59
2023-02-02T03:55:35.254Z,100415.12
2023-02-02T03:58:38.320Z,100411.56
2023-02-02T04:01:40.966Z,100410.84
2023-02-02T04:04:43.900Z,100402.69
2023-02-02T04:07:46.533Z,100424.25
2023-02-02T04:10:49.536Z,100404.03
2023-02-02T04:13:52.173Z,100401.31
2023-02-02T04:16:55.044Z,100412.88
2023-02-02T04:19:58.603Z,100386.56
2023-02-02T04:23:01.596Z,100410.84
2023-02-02T04:26:04.649Z,100394.53
2023-02-02T04:29:08.229Z,100418.22
2023-02-02T04:32:11.544Z,100397.03
2023-02-02T04:35:14.556Z,100399.22
2023-02-02T04:38:17.296Z,100387.84
2023-02-02T04:41:20.823Z,100383.72
2023-02-02T04:44:23.447Z,100377.78
2023-02-02T04:47:26.480Z,100383.66
2023-02-02T04:50:30.259Z,100365.22
2023-02-02T04:53:33.483Z,100384.94
2023-02-02T04:56:36.276Z,100395.06
2023-02-02T04:59:42.202Z,100383.41
2023-02-02T05:02:45.118Z,100390.69
2023-02-02T05:05:48.092Z,100390.28
2023-02-02T05:08:50.940Z,100405.97
2023-02-02T05:11:53.929Z,100411.22
2023-02-02T05:14:56.595Z,100414.38
2023-02-02T05:17:59.519Z,100422.50
2023-02-02T05:21:03.661Z,100420.59
2023-02-02T05:24:06.827Z,100420.31
2023-02-02T05:27:09.459Z,100415.63
2023-02-02T05:30:14.024Z,100391.34
2023-02-02T05:33:18.788Z,100382.72
2023-02-02T05:36:21.755Z,100378.69
2023-02-02T05:39:24.501Z,100388.44
2023-02-02T05:42:27.478Z,100404.56
2023-02-02T05:45:30.216Z,100389.28
2023-02-02T05:48:33.320Z,100382.31
2023-02-02T05:51:42.795Z,100381.00
2023-02-02T05:54:45.744Z,100367.38
2023-02-02T05:57:48.333Z,100367.47
2023-02-02T06:00:51.933Z,100370.50
2023-02-02T06:03:54.995Z,100365.28
2023-02-02T06:06:57.853Z,100347.78
2023-02-02T06:10:00.948Z,100372.00
2023-02-02T06:13:03.550Z,100380.03
2023-02-02T06:16:07.090Z,100380.03
2023-02-02T06:19:10.013Z,100380.66
2023-02-02T06:22:13.253Z,100378.22
2023-02-02T06:25:16.218Z,100380.66
2023-02-02T06:28:19.620Z,100368.59
2023-02-02T06:31:27.343Z,100395.72
2023-02-02T06:34:30.505Z,100390.16
2023-02-02T06:37:34.258Z,100368.38
2023-02-02T06:40:37.261Z,100404.59
2023-02-02T06:43:39.802Z,100397.84
2023-02-02T06:46:42.891Z,100398.12
2023-02-02T06:49:45.605Z,100408.84
2023-02-02T06:52:52.496Z,100405.94
2023-02-02T06:55:59.598Z,100422.34
2023-02-02T06:59:03.053Z,100422.44
2023-02-02T07:02:05.797Z,100413.50
2023-02-02T07:05:09.260Z,100386.41
2023-02-02T07:08:12.315Z,100386.81
2023-02-02T07:11:17.295Z,100411.75
2023-02-02T07:14:20.429Z,100396.19
2023-02-02T07:17:23.547Z,100416.56
2023-02-02T07:20:27.081Z,100418.16
2023-02-02T07:23:30.383Z,100408.03
2023-02-02T07:26:35.907Z,100395.47
2023-02-02T07:29:38.858Z,100420.37
2023-02-02T07:32:47.150Z,100427.19
2023-02-02T07:35:51.593Z,100425.41
2023-02-02T07:38:54.893Z,100414.00
2023-02-02T07:41:57.932Z,100425.50
2023-02-02T07:45:26.720Z,100424.88
2023-02-02T07:48:24.299Z,100438.31
2023-02-02T07:51:26.955Z,100442.88
2023-02-02T07:54:31.846Z,100442.97
2023-02-02T07:57:34.576Z,100445.00
2023-02-02T08:00:37.770Z,100447.00
2023-02-02T08:03:42.947Z,100438.03
2023-02-02T08:06:45.591Z,100460.00
2023-02-02T08:09:48.624Z,100440.84
2023-02-02T08:12:51.260Z,100446.87
2023-02-02T08:15:54.213Z,100441.97
2023-02-02T08:18:57.762Z,100450.03
2023-02-02T08:22:00.776Z,100451.78
2023-02-02T08:25:03.484Z,100454.78
2023-02-02T08:28:06.450Z,100438.03
2023-02-02T08:31:21.936Z,100449.84
2023-02-02T08:34:24.861Z,100465.47
2023-02-02T08:37:27.646Z,100463.94
2023-02-02T08:40:30.948Z,100474.44
2023-02-02T08:43:33.984Z,100487.53
2023-02-02T08:46:36.991Z,100499.91
2023-02-02T08:49:39.578Z,100502.28
2023-02-02T08:52:42.613Z,100489.44
2023-02-02T08:55:45.240Z,100506.16
2023-02-02T08:58:56.522Z,100510.22
2023-02-02T09:01:59.391Z,100504.38
2023-02-02T09:05:02.311Z,100508.88
2023-02-02T09:08:06.034Z,100519.31
2023-02-02T09:11:20.242Z,100506.16
2023-02-02T09:14:22.869Z,100487.09
2023-02-02T09:17:25.963Z,100507.63
2023-02-02T09:20:28.640Z,100503.09
2023-02-02T09:23:33.531Z,100514.31
2023-02-02T09:26:37.442Z,100519.22
2023-02-02T09:29:40.388Z,100516.56
2023-02-02T09:32:43.235Z,100512.50
2023-02-02T09:35:46.160Z,100505.03
2023-02-02T09:38:51.148Z,100501.16
2023-02-02T09:42:09.473Z,100517.28
2023-02-02T09:45:39.293Z,100498.22
2023-02-02T09:49:01.252Z,100478.78
2023-02-02T09:52:13.230Z,100477.09
2023-02-02T09:55:39.688Z,100486.50
2023-02-02T09:58:52.086Z,100504.84
2023-02-02T10:02:06.246Z,100512.47
2023-02-02T10:05:17.139Z,100503.38
2023-02-02T10:08:46.092Z,100506.69
2023-02-02T10:11:58.892Z,100508.75
2023-02-02T10:15:24.469Z,100486.84
2023-02-02T10:18:33.777Z,100503.03
2023-02-02T10:21:49.831Z,100486.16
2023-02-02T10:24:53.159Z,100468.66
2023-02-02T10:28:07.292Z,100488.06
2023-02-02T10:31:28.656Z,100508.78
2023-02-02T10:34:40.499Z,100501.56
2023-02-02T10:37:56.998Z,100479.88
2023-02-02T10:41:15.749Z,100451.41
2023-02-02T10:44:37.468Z,100466.50
2023-02-02T10:47:40.319Z,100479.31
2023-02-02T10:50:48.006Z,100463.94
2023-02-02T10:53:53.473Z,100464.94
2023-02-02T10:57:00.826Z,100459.00
2023-02-02T11:00:23.444Z,100462.16
2023-02-02T11:03:32.555Z,100457.91
2023-02-02T11:06:52.152Z,100463.84
2023-02-02T11:09:55.177Z,100471.91
2023-02-02T11:13:01.921Z,100493.56
2023-02-02T11:16:17.243Z,100473.66
2023-02-02T11:19:19.885Z,100462.66
2023-02-02T11:22:38.792Z,100462.69
2023-02-02T11:25:43.169Z,100466.00
2023-02-02T11:28:49.703Z,100454.88
2023-02-02T11:31:52.320Z,100476.34
2023-02-02T11:35:04.574Z,100447.06
2023-02-02T11:38:17.637Z,100456.81
2023-02-02T11:41:20.763Z,100441.94
2023-02-02T11:44:28.640Z,100446.19
2023-02-02T11:47:33.774Z,100439.72
2023-02-02T11:50:36.834Z,100449.84
2023-02-02T11:53:47.435Z,100448.88
2023-02-02T11:56:53.481Z,100430.94
2023-02-02T12:00:09.235Z,100424.41
2023-02-02T12:03:30.951Z,100434.44
2023-02-02T12:06:33.568Z,100425.56
2023-02-02T12:09:36.685Z,100448.56
2023-02-02T12:13:03.354Z,100427.31
2023-02-02T12:16:37.050Z,100441.00
2023-02-02T12:19:56.508Z,100438.72
2023-02-02T12:23:21.380Z,100438.50
2023-02-02T12:26:37.185Z,100418.47
2023-02-02T12:29:58.475Z,100421.47
2023-02-02T12:33:21.464Z,100423.13
2023-02-02T12:36:47.757Z,100418.97
2023-02-02T12:39:56.373Z,100407.09
2023-02-02T12:43:18.590Z,100406.59
2023-02-02T12:46:49.741Z,100413.81
2023-02-02T12:50:12.878Z,100437.72
2023-02-02T12:53:24.687Z,100429.09
2023-02-02T12:57:20.155Z,100426.94
2023-02-02T13:01:01.145Z,100408.94
2023-02-02T13:04:25.465Z,100432.59
2023-02-02T13:07:40.701Z,100428.22
2023-02-02T13:10:49.246Z,100428.94
2023-02-02T13:13:52.014Z,100435.97
2023-02-02T13:17:13.138Z,100433.00
2023-02-02T13:20:24.758Z,100434.06
2023-02-02T13:23:32.854Z,100431.41
2023-02-02T13:26:40.532Z,100411.28
2023-02-02T13:29:56.603Z,100445.94
2023-02-02T13:33:05.544Z,100441.09
2023-02-02T13:36:29.988Z,100468.56
2023-02-02T13:39:54.249Z,100447.81
2023-02-02T13:43:16.057Z,100459.75
2023-02-02T13:46:32.134Z,100447.88
2023-02-02T13:49:50.078Z,100446.66
2023-02-02T13:53:01.575Z,100465.28
2023-02-02T13:56:43.495Z,100467.22
2023-02-02T14:00:01.988Z,100457.13
2023-02-02T14:03:33.692Z,100484.81
2023-02-02T14:06:57.263Z,100491.81
2023-02-02T14:10:00.281Z,100486.44
2023-02-02T14:13:32.297Z,100503.88
2023-02-02T14:16:37.951Z,100498.16
2023-02-02T14:19:43.876Z,100494.44
2023-02-02T14:22:51.818Z,100504.13
2023-02-02T14:26:09.319Z,100499.91
2023-02-02T14:29:58.129Z,100467.28
2023-02-02T14:33:19.097Z,100495.19
2023-02-02T14:36:22.499Z,100486.56
2023-02-02T14:39:30.307Z,100483.12
2023-02-02T14:43:17.617Z,100475.56
2023-02-02T14:46:36.406Z,100452.53
2023-02-02T14:49:39.480Z,100475.50
2023-02-02T14:52:42.586Z,100474.59
2023-02-02T14:56:03.629Z,100473.72
2023-02-02T14:59:16.239Z,100480.28
2023-02-02T15:02:23.446Z,100473.94
2023-02-02T15:05:29.406Z,100482.13
2023-02-02T15:08:32.233Z,100493.12
2023-02-02T15:12:06.917Z,100487.78
2023-02-02T15:15:17.618Z,100496.66
2023-02-02T15:18:30.964Z,100510.94
2023-02-02T15:21:38.403Z,100517.38
2023-02-02T15:24:45.476Z,100513.88
2023-02-02T15:27:57.187Z,100514.34
2023-02-02T15:31:05.941Z,100525.44
2023-02-02T15:34:20.925Z,100527.12
2023-02-02T15:37:30.599Z,100532.00
2023-02-02T15:40:36.839Z,100539.19
2023-02-02T15:43:40.444Z,100545.28
2023-02-02T15:46:43.442Z,100548.09
2023-02-02T15:49:46.473Z,100535.84
2023-02-02T15:52:51.900Z,100545.41
2023-02-02T15:55:56.958Z,100548.91
2023-02-02T15:59:00.635Z,100552.59
2023-02-02T16:02:06.461Z,100551.56
2023-02-02T16:05:32.601Z,100558.63
2023-02-02T16:08:37.908Z,100553.69
2023-02-02T16:11:45.629Z,100550.31
2023-02-02T16:14:51.651Z,100542.75
2023-02-02T16:18:02.193Z,100555.53
2023-02-02T16:21:15.211Z,100572.25
2023-02-02T16:24:28.638Z,100582.03
2023-02-02T16:27:32.775Z,100588.06
2023-02-02T16:30:39.691Z,100579.41
2023-02-02T16:33:44.994Z,100588.41
2023-02-02T16:37:36.863Z,100581.00
2023-02-02T16:40:39.686Z,100587.59
2023-02-02T16:43:46.262Z,100587.25
2023-02-02T16:46:49.991Z,100593.84
2023-02-02T16:50:08.811Z,100594.69
2023-02-02T16:53:22.836Z,100603.53
2023-02-02T16:56:40.838Z,100601.94
2023-02-02T16:59:49.770Z,100606.72
2023-02-02T17:03:11.081Z,100605.56
2023-02-02T17:06:13.905Z,100618.78
2023-02-02T17:09:32.525Z,100600.59
2023-02-02T17:12:37.600Z,100626.91
2023-02-02T17:15:40.480Z,100629.72
2023-02-02T17:18:43.489Z,100637.56
2023-02-02T17:21:49.454Z,100629.87
2023-02-02T17:24:52.694Z,100634.97
2023-02-02T17:27:58.237Z,100648.69
2023-02-02T17:31:06.072Z,100648.94
2023-02-02T17:34:16.455Z,100650.28
2023-02-02T17:37:19.458Z,100655.53
2023-02-02T17:40:24.160Z,100660.66
2023-02-02T17:43:27.322Z,100666.88
2023-02-02T17:46:33.629Z,100670.94
2023-02-02T17:49:36.568Z,100671.63
2023-02-02T17:52:40.173Z,100676.84
2023-02-02T17:55:45.699Z,100678.94
2023-02-02T17:58:48.791Z,100681.28
2023-02-02T18:01:55.232Z,100679.19
2023-02-02T18:04:58.147Z,100676.03
2023-02-02T18:08:00.970Z,100686.53
2023-02-02T18:11:04.427Z,100696.16
2023-02-02T18:14:07.184Z,100706.09
2023-02-02T18:17:10.852Z,100698.56
2023-02-02T18:20:16.748Z,100707.34
2023-02-02T18:23:19.947Z,100700.66
2023-02-02T18:26:22.845Z,100706.56
2023-02-02T18:29:27.091Z,100701.94
2023-02-02T18:32:30.317Z,100713.69
2023-02-02T18:35:33.373Z,100694.13
2023-02-02T18:38:36.542Z,100711.37
2023-02-02T18:41:40.107Z,100721.37
2023-02-02T18:44:43.299Z,100717.91
2023-02-02T18:47:46.431Z,100725.09
2023-02-02T18:50:49.181Z,100731.66
2023-02-02T18:53:52.497Z,100733.72
2023-02-02T18:56:55.266Z,100733.22
2023-02-02T18:59:58.223Z,100752.19
2023-02-02T19:03:01.095Z,100751.87
2023-02-02T19:06:24.024Z,100759.88
2023-02-02T19:09:26.996Z,100753.97
2023-02-02T19:12:30.521Z,100761.00
2023-02-02T19:15:38.024Z,100742.81
2023-02-02T19:18:42.844Z,100744.56
2023-02-02T19:21:45.769Z,100731.63
2023-02-02T19:24:50.316Z,100754.59
2023-02-02T19:27:53.210Z,100730.38
2023-02-02T19:31:01.787Z,100750.62
2023-02-02T19:34:17.455Z,100757.34
2023-02-02T19:37:24.737Z,100750.31
2023-02-02T19:40:27.859Z,100750.25
2023-02-02T19:43:33.169Z,100743.25
2023-02-02T19:46:42.653Z,100742.16
2023-02-02T19:49:45.968Z,100748.38
2023-02-02T19:52:50.001Z,100751.44
2023-02-02T19:55:53.127Z,100757.44
2023-02-02T19:58:55.968Z,100769.09
2023-02-02T20:02:17.861Z,100796.81
2023-02-02T20:05:23.521Z,100807.09
2023-02-02T20:08:36.060Z,100810.88
2023-02-02T20:11:42.079Z,100800.06
2023-02-02T20:14:47.850Z,100794.31
2023-02-02T20:17:54.365Z,100810.25
2023-02-02T20:20:57.961Z,100817.28
2023-02-02T20:24:01.220Z,100819.81
2023-02-02T20:27:28.783Z,100846.41
2023-02-02T20:30:31.973Z,100850.72
2023-02-02T20:33:36.130Z,100840.53
2023-02-02T20:36:44.051Z,100836.28
2023-02-02T20:39:52.129Z,100835.59
2023-02-02T20:42:57.827Z,100833.34
2023-02-02T20:46:00.832Z,100828.16
2023-02-02T20:49:05.697Z,100834.75
2023-02-02T20:52:12.996Z,100828.84
2023-02-02T20:55:16.225Z,100834.69
2023-02-02T20:58:21.931Z,100814.66
2023-02-02T21:01:26.264Z,100830.28
2023-02-02T21:04:29.037Z,100833.66
2023-02-02T21:07:32.172Z,100841.34
2023-02-02T21:10:35.343Z,100850.56
2023-02-02T21:13:38.281Z,100872.62
2023-02-02T21:16:40.966Z,100861.09
2023-02-02T21:19:44.330Z,100867.56
2023-02-02T21:22:48.407Z,100873.41
2023-02-02T21:25:53.389Z,100871.50
2023-02-02T21:28:58.362Z,100859.12
2023-02-02T21:32:02.795Z,100865.34
2023-02-02T21:35:06.798Z,100872.53
2023-02-02T21:38:15.714Z,100864.00
2023-02-02T21:41:18.985Z,100880.78
2023-02-02T21:44:22.571Z,100882.22
2023-02-02T21:48:03.169Z,100899.00
2023-02-02T21:51:25.511Z,100909.38
2023-02-02T21:54:35.607Z,100914.59
2023-02-02T21:57:38.300Z,100897.19
2023-02-02T22:00:44.644Z,100922.28
2023-02-02T22:03:49.931Z,100924.75
2023-02-02T22:07:14.509Z,100924.81
2023-02-02T22:10:23.238Z,100926.66
2023-02-02T22:13:26.627Z,100925.72
2023-02-02T22:16:36.087Z,100910.84
2023-02-02T22:19:39.403Z,100928.31
2023-02-02T22:22:47.523Z,100899.75
2023-02-02T22:25:54.277Z,100891.22
2023-02-02T22:28:57.457Z,100920.66
2023-02-02T22:32:00.390Z,100917.12
2023-02-02T22:35:03.377Z,100912.19
2023-02-02T22:38:06.621Z,100942.72
2023-02-02T22:41:09.703Z,100935.97
2023-02-02T22:44:12.416Z,100937.75
2023-02-02T22:47:15.341Z,100930.94
2023-02-02T22:50:23.153Z,100946.19
2023-02-02T22:53:26.176Z,100953.31
2023-02-02T22:56:28.808Z,100949.06
2023-02-02T22:59:32.204Z,100957.16
2023-02-02T23:02:35.134Z,100959.41
2023-02-02T23:05:38.501Z,100956.19
2023-02-02T23:08:41.276Z,100964.25
2023-02-02T23:11:44.526Z,100965.59
2023-02-02T23:14:47.214Z,100970.31
2023-02-02T23:17:50.521Z,100966.09
2023-02-02T23:20:53.163Z,100987.22
2023-02-02T23:23:56.329Z,101002.78
2023-02-02T23:26:59.189Z,100990.41
2023-02-02T23:30:02.363Z,100999.47
2023-02-02T23:33:06.666Z,101005.25
2023-02-02T23:36:09.724Z,101006.56
2023-02-02T23:39:13.429Z,101008.06
2023-02-02T23:42:16.685Z,100982.59
2023-02-02T23:45:19.313Z,101006.09
2023-02-02T23:48:22.311Z,101028.81
2023-02-02T23:51:25.254Z,101025.69
2023-02-02T23:54:29.667Z,101015.97
2023-02-02T23:57:33.947Z,101032.91
